Time;durP1;ratioP1;P1;durP2;ratioP2;P2;SDS_P1;SDS_P2;PMS_P1;PMS_P2;Temp;Humidity;BMP_temperature;BMP_pressure;BME280_temperature;BME280_humidity;BME280_pressure;Samples;Min_cycle;Max_cycle;Signal;HPM_P1;HPM_P2
2021/11/06 00:00:29;;;;;;;4.22;1.45;;;9.30;99.90;;;;;;4863947;29;20028;-78
2021/11/06 00:02:55;;;;;;;4.40;1.88;;;9.30;99.90;;;;;;4863467;29;20049;-78
2021/11/06 00:05:21;;;;;;;4.15;1.90;;;9.30;99.90;;;;;;4876358;29;20031;-78
2021/11/06 00:07:47;;;;;;;5.18;2.03;;;9.20;99.90;;;;;;4872730;29;20501;-79
2021/11/06 00:10:13;;;;;;;5.57;1.58;;;9.20;99.90;;;;;;4858663;29;20111;-78
2021/11/06 00:12:39;;;;;;;2.92;1.73;;;9.20;99.90;;;;;;4880311;29;20056;-80
2021/11/06 00:15:06;;;;;;;7.05;2.53;;;9.30;99.90;;;;;;4865247;29;20407;-80
2021/11/06 00:17:32;;;;;;;8.43;2.03;;;9.30;99.90;;;;;;4863273;29;20040;-80
2021/11/06 00:19:58;;;;;;;3.45;1.63;;;9.30;99.90;;;;;;4875327;29;20037;-82
2021/11/06 00:22:24;;;;;;;2.85;1.58;;;9.30;99.90;;;;;;4876109;29;20033;-82
2021/11/06 00:24:50;;;;;;;3.85;2.00;;;9.30;99.90;;;;;;4882901;29;20107;-82
2021/11/06 00:27:16;;;;;;;4.13;1.88;;;9.30;99.90;;;;;;4864831;29;20029;-82
2021/11/06 00:29:42;;;;;;;2.47;1.55;;;9.30;99.90;;;;;;4863576;29;20079;-83
2021/11/06 00:32:08;;;;;;;4.65;2.25;;;9.30;99.90;;;;;;4877380;29;20501;-82
2021/11/06 00:34:34;;;;;;;5.78;2.17;;;9.20;99.90;;;;;;4868077;29;20076;-82
2021/11/06 00:36:59;;;;;;;7.30;2.10;;;9.30;99.90;;;;;;4879000;29;20028;-82
2021/11/06 00:39:25;;;;;;;5.63;2.00;;;9.30;99.90;;;;;;4859767;29;20105;-82
2021/11/06 00:41:51;;;;;;;5.38;1.75;;;9.20;99.90;;;;;;4863340;29;20049;-83
2021/11/06 00:44:16;;;;;;;6.07;2.70;;;9.20;99.90;;;;;;4865656;29;20509;-82
2021/11/06 00:46:42;;;;;;;3.20;2.03;;;9.20;99.90;;;;;;4891721;29;20035;-82
2021/11/06 00:49:08;;;;;;;4.70;2.22;;;9.20;99.90;;;;;;4893537;29;20024;-82
2021/11/06 00:51:33;;;;;;;2.65;2.03;;;9.20;99.90;;;;;;4898521;29;20049;-83
2021/11/06 00:53:59;;;;;;;3.58;2.22;;;9.10;99.90;;;;;;4896250;29;20021;-83
2021/11/06 00:56:25;;;;;;;8.18;3.08;;;9.20;99.90;;;;;;4897876;29;20028;-82
2021/11/06 00:58:51;;;;;;;7.55;2.72;;;9.10;99.90;;;;;;4895193;29;20091;-84
2021/11/06 01:01:17;;;;;;;5.32;2.72;;;9.10;99.90;;;;;;4873360;29;20047;-80
2021/11/06 01:03:42;;;;;;;10.43;3.05;;;9.10;99.90;;;;;;4884778;29;20040;-81
2021/11/06 01:06:08;;;;;;;6.43;3.25;;;9.10;99.90;;;;;;4891814;29;20474;-82
2021/11/06 01:08:34;;;;;;;6.13;2.78;;;9.10;99.90;;;;;;4892922;29;20119;-83
2021/11/06 01:11:00;;;;;;;9.85;3.50;;;9.10;99.90;;;;;;4883364;29;20550;-82
2021/11/06 01:13:26;;;;;;;4.60;3.17;;;9.10;99.90;;;;;;4892626;29;20115;-83
2021/11/06 01:15:51;;;;;;;12.25;3.15;;;9.10;99.90;;;;;;4895462;29;20025;-83
2021/11/06 01:18:17;;;;;;;8.80;3.65;;;9.10;99.90;;;;;;4871288;29;20525;-83
2021/11/06 01:20:43;;;;;;;7.95;3.30;;;9.10;99.90;;;;;;4871730;29;20028;-83
2021/11/06 01:23:08;;;;;;;6.15;3.58;;;9.10;99.90;;;;;;4889778;29;20398;-82
2021/11/06 01:25:36;;;;;;;4.35;3.25;;;9.10;99.90;;;;;;4870230;29;20532;-81
2021/11/06 01:28:02;;;;;;;9.77;3.50;;;9.10;99.90;;;;;;4867123;29;20502;-83
2021/11/06 01:30:28;;;;;;;6.18;3.20;;;9.10;99.90;;;;;;4880450;29;20025;-83
2021/11/06 01:32:53;;;;;;;8.55;3.85;;;9.20;99.90;;;;;;4879024;29;20036;-83
2021/11/06 01:35:19;;;;;;;10.40;3.97;;;9.10;99.90;;;;;;4883968;29;20041;-82
2021/11/06 01:37:46;;;;;;;13.35;3.67;;;9.10;99.90;;;;;;4875941;29;20037;-81
2021/11/06 01:40:15;;;;;;;5.13;3.28;;;9.20;99.90;;;;;;4879344;29;20033;-83
2021/11/06 01:42:41;;;;;;;9.98;4.15;;;9.20;99.90;;;;;;4893928;29;20367;-83
2021/11/06 01:45:09;;;;;;;10.38;4.20;;;9.20;99.90;;;;;;4895814;29;20093;-82
2021/11/06 01:47:35;;;;;;;5.10;3.20;;;9.20;99.90;;;;;;4874242;29;20029;-84
2021/11/06 01:50:01;;;;;;;6.47;3.72;;;9.20;99.90;;;;;;4901819;29;20039;-81
2021/11/06 01:52:26;;;;;;;10.80;4.22;;;9.20;99.90;;;;;;4868608;29;20046;-83
2021/11/06 01:54:52;;;;;;;9.05;3.70;;;9.20;99.90;;;;;;4864157;29;20090;-84
2021/11/06 01:57:18;;;;;;;10.73;4.28;;;9.20;99.90;;;;;;4864001;29;20128;-81
2021/11/06 01:59:47;;;;;;;6.45;3.22;;;9.20;99.90;;;;;;4872992;29;20033;-82
2021/11/06 02:02:15;;;;;;;8.48;4.15;;;9.20;99.90;;;;;;4875441;29;20033;-82
2021/11/06 02:04:40;;;;;;;11.38;4.00;;;9.10;99.90;;;;;;4874488;29;20044;-84
2021/11/06 02:07:06;;;;;;;6.13;3.88;;;9.20;99.90;;;;;;4865939;29;20033;-80
2021/11/06 02:09:32;;;;;;;7.85;3.58;;;9.20;99.90;;;;;;4877777;29;20495;-82
2021/11/06 02:11:58;;;;;;;8.48;4.00;;;9.20;99.90;;;;;;4868889;29;20185;-84
2021/11/06 02:14:24;;;;;;;11.32;4.38;;;9.20;99.90;;;;;;4879509;29;20518;-83
2021/11/06 02:16:52;;;;;;;8.25;4.03;;;9.20;99.90;;;;;;4871843;29;20094;-83
2021/11/06 02:19:18;;;;;;;6.97;3.95;;;9.20;99.90;;;;;;4860904;29;20136;-82
2021/11/06 02:21:46;;;;;;;8.45;4.05;;;9.20;99.90;;;;;;4862071;29;20038;-81
2021/11/06 02:24:12;;;;;;;;;;;9.20;99.90;;;;;;4876292;29;20021;-81
2021/11/06 02:26:38;;;;;;;11.75;3.97;;;9.20;99.90;;;;;;4879727;29;19967;-82
2021/11/06 02:29:04;;;;;;;8.75;3.72;;;9.20;99.90;;;;;;4881200;29;20029;-83
2021/11/06 02:34:24;;;;;;;9.15;4.25;;;9.20;99.90;;;;;;5215192;23;20578;-82
2021/11/06 02:36:49;;;;;;;6.97;4.32;;;9.10;99.90;;;;;;4874456;29;20037;-83
2021/11/06 02:39:15;;;;;;;6.88;4.03;;;9.10;99.90;;;;;;4882801;29;20058;-82
2021/11/06 02:41:41;;;;;;;10.80;4.88;;;9.10;99.90;;;;;;4896991;29;20033;-82
2021/11/06 02:44:11;;;;;;;11.38;4.82;;;9.10;99.90;;;;;;4900353;29;20029;-82
2021/11/06 02:46:40;;;;;;;10.77;4.35;;;9.00;99.90;;;;;;4888359;29;20037;-81
2021/11/06 02:49:07;;;;;;;9.48;4.63;;;9.00;99.90;;;;;;4892635;29;20048;-82
2021/11/06 02:51:33;;;;;;;11.00;4.78;;;9.00;99.90;;;;;;4865072;29;20564;-82
2021/11/06 02:53:59;;;;;;;7.95;4.68;;;9.00;99.90;;;;;;4861880;29;20040;-82
2021/11/06 02:56:26;;;;;;;9.90;5.00;;;8.90;99.90;;;;;;4882079;29;20491;-81
2021/11/06 02:58:53;;;;;;;5.80;4.75;;;9.00;99.90;;;;;;4876186;29;20041;-83
2021/11/06 03:01:21;;;;;;;7.47;5.00;;;9.00;99.90;;;;;;4873242;29;20451;-82
2021/11/06 03:03:48;;;;;;;10.27;4.85;;;9.00;99.90;;;;;;4875337;29;20036;-82
2021/11/06 03:06:14;;;;;;;8.63;4.80;;;9.00;99.90;;;;;;4882606;29;20031;-83
2021/11/06 03:08:40;;;;;;;16.50;5.25;;;8.90;99.90;;;;;;4893444;29;20406;-81
2021/11/06 03:11:07;;;;;;;7.85;5.15;;;8.90;99.90;;;;;;4880918;29;20032;-82
2021/11/06 03:13:33;;;;;;;10.43;5.18;;;9.00;99.90;;;;;;4873069;29;20033;-82
2021/11/06 03:15:59;;;;;;;8.68;4.45;;;9.00;99.90;;;;;;4875082;29;20043;-83
2021/11/06 03:18:25;;;;;;;12.77;5.40;;;9.00;99.90;;;;;;4881480;29;20021;-82
2021/11/06 03:20:51;;;;;;;9.48;4.75;;;9.00;99.90;;;;;;4861099;29;20097;-82
2021/11/06 03:23:17;;;;;;;12.18;5.20;;;9.00;99.90;;;;;;4865863;29;20041;-83
2021/11/06 03:25:43;;;;;;;9.40;6.00;;;9.00;99.90;;;;;;4865727;29;20479;-83
2021/11/06 03:28:09;;;;;;;7.55;4.93;;;9.00;99.90;;;;;;4880641;29;20088;-84
2021/11/06 03:30:35;;;;;;;17.10;5.82;;;9.00;99.90;;;;;;4880478;29;20025;-80
2021/11/06 03:33:01;;;;;;;11.77;5.25;;;9.00;99.90;;;;;;4881968;29;20029;-83
2021/11/06 03:35:27;;;;;;;9.07;5.15;;;9.00;99.90;;;;;;4893492;29;20548;-83
2021/11/06 03:37:53;;;;;;;9.77;5.10;;;9.00;99.90;;;;;;4882253;29;20478;-83
2021/11/06 03:40:19;;;;;;;7.30;4.55;;;9.00;99.90;;;;;;4865114;29;20056;-84
2021/11/06 03:42:46;;;;;;;11.50;5.50;;;9.00;99.90;;;;;;4864209;29;20068;-83
2021/11/06 03:45:12;;;;;;;9.60;5.60;;;9.00;99.90;;;;;;4862386;29;20490;-83
2021/11/06 03:47:38;;;;;;;9.02;4.80;;;9.00;99.90;;;;;;4879466;29;20092;-83
2021/11/06 03:50:09;;;;;;;11.27;5.07;;;9.00;99.90;;;;;;4875129;29;20032;-83
2021/11/06 03:52:35;;;;;;;6.80;5.00;;;9.00;99.90;;;;;;4870146;29;20036;-84
2021/11/06 03:55:02;;;;;;;10.75;5.80;;;9.00;99.90;;;;;;4898469;29;20051;-82
2021/11/06 03:57:27;;;;;;;11.48;5.82;;;9.00;99.90;;;;;;4881522;29;20100;-82
2021/11/06 03:59:53;;;;;;;9.82;5.43;;;9.00;99.90;;;;;;4897120;29;20029;-82
2021/11/06 04:02:19;;;;;;;12.80;5.80;;;8.90;99.90;;;;;;4886308;29;20040;-83
2021/11/06 04:04:44;;;;;;;8.60;5.55;;;8.90;99.90;;;;;;4893926;29;20032;-81
2021/11/06 04:07:10;;;;;;;8.00;4.88;;;8.90;99.90;;;;;;4865053;29;20040;-83
2021/11/06 04:09:36;;;;;;;10.45;6.05;;;9.00;99.90;;;;;;4864510;29;20139;-83
2021/11/06 04:12:01;;;;;;;9.48;6.07;;;8.90;99.90;;;;;;4883582;29;20068;-83
2021/11/06 04:14:27;;;;;;;11.85;5.72;;;8.90;99.90;;;;;;4874987;29;20037;-84
2021/11/06 04:16:53;;;;;;;14.35;7.00;;;8.90;99.90;;;;;;4881508;29;20451;-82
2021/11/06 04:19:19;;;;;;;12.43;5.53;;;8.80;99.90;;;;;;4863304;29;20022;-82
2021/11/06 04:21:45;;;;;;;12.85;5.88;;;8.90;99.90;;;;;;4880427;29;20545;-82
2021/11/06 04:24:11;;;;;;;15.40;5.80;;;8.90;99.90;;;;;;4898005;29;20060;-83
2021/11/06 04:26:36;;;;;;;10.73;5.72;;;8.80;99.90;;;;;;4882974;29;20092;-83
2021/11/06 04:29:02;;;;;;;10.75;5.57;;;8.80;99.90;;;;;;4871404;29;20028;-83
2021/11/06 04:31:28;;;;;;;8.90;6.22;;;8.80;99.90;;;;;;4899837;29;20040;-83
2021/11/06 04:33:54;;;;;;;10.90;6.32;;;8.80;99.90;;;;;;4868583;29;20067;-80
2021/11/06 04:36:19;;;;;;;8.30;5.53;;;8.80;99.90;;;;;;4872363;29;20033;-81
2021/11/06 04:38:45;;;;;;;8.82;6.30;;;8.80;99.90;;;;;;4843322;29;20042;-81
2021/11/06 04:41:11;;;;;;;12.10;6.65;;;8.80;99.90;;;;;;4850642;29;20047;-84
2021/11/06 04:43:38;;;;;;;10.00;5.43;;;8.80;99.90;;;;;;4861295;29;20043;-82
2021/11/06 04:46:04;;;;;;;9.35;6.15;;;8.90;99.90;;;;;;4861520;29;20041;-83
2021/11/06 04:48:33;;;;;;;14.10;6.10;;;8.90;99.90;;;;;;4861518;29;20037;-84
2021/11/06 04:50:58;;;;;;;14.20;6.80;;;8.90;99.90;;;;;;4862381;29;20109;-84
2021/11/06 04:53:24;;;;;;;10.70;7.05;;;8.90;99.90;;;;;;4861978;29;20106;-84
2021/11/06 04:55:50;;;;;;;14.48;6.85;;;8.80;99.90;;;;;;4862110;29;20037;-84
2021/11/06 04:58:16;;;;;;;12.77;6.90;;;8.80;99.90;;;;;;4860454;29;20026;-84
2021/11/06 05:00:42;;;;;;;16.02;7.20;;;8.80;99.90;;;;;;4866435;29;20073;-81
2021/11/06 05:03:08;;;;;;;19.58;6.70;;;8.80;99.90;;;;;;4863839;29;20435;-83
2021/11/06 05:05:34;;;;;;;14.15;6.90;;;8.80;99.90;;;;;;4863099;29;20029;-84
2021/11/06 05:08:00;;;;;;;10.30;6.68;;;8.80;99.90;;;;;;4864111;29;20037;-83
2021/11/06 05:10:25;;;;;;;10.50;6.85;;;8.90;99.90;;;;;;4865725;29;20021;-84
2021/11/06 05:12:51;;;;;;;10.32;6.57;;;8.90;99.90;;;;;;4860087;29;20041;-82
2021/11/06 05:15:17;;;;;;;17.45;7.38;;;8.90;99.90;;;;;;4863032;29;20026;-83
2021/11/06 05:17:43;;;;;;;15.07;7.07;;;8.90;99.90;;;;;;4880660;29;20052;-83
2021/11/06 05:20:10;;;;;;;18.73;7.05;;;8.90;99.90;;;;;;4877552;29;20036;-83
2021/11/06 05:22:37;;;;;;;21.33;8.68;;;8.90;99.90;;;;;;4861466;29;20037;-84
2021/11/06 05:25:04;;;;;;;12.20;7.95;;;8.90;99.90;;;;;;4860548;29;20034;-83
2021/11/06 05:27:31;;;;;;;16.10;7.97;;;8.90;99.90;;;;;;4866856;29;20036;-84
2021/11/06 05:29:59;;;;;;;13.00;7.47;;;8.90;99.90;;;;;;4879056;29;20029;-84
2021/11/06 05:32:25;;;;;;;21.63;9.02;;;8.90;99.90;;;;;;4867824;29;20034;-82
2021/11/06 05:34:51;;;;;;;22.17;8.48;;;8.90;99.90;;;;;;4863656;29;20498;-82
2021/11/06 05:37:16;;;;;;;11.70;7.38;;;8.90;99.90;;;;;;4867622;29;20506;-83
2021/11/06 05:39:42;;;;;;;17.92;8.00;;;9.00;99.90;;;;;;4862549;29;20033;-83
2021/11/06 05:42:08;;;;;;;19.10;8.00;;;9.00;99.90;;;;;;4866689;29;20037;-81
2021/11/06 05:44:33;;;;;;;19.08;8.93;;;9.00;99.90;;;;;;4889093;29;20037;-82
2021/11/06 05:46:59;;;;;;;17.27;8.52;;;9.00;99.90;;;;;;4878219;29;20022;-83
2021/11/06 05:49:24;;;;;;;22.98;8.75;;;9.10;99.90;;;;;;4865551;29;20034;-79
2021/11/06 05:51:50;;;;;;;17.65;8.85;;;9.10;99.90;;;;;;4865605;29;20038;-82
2021/11/06 05:54:16;;;;;;;15.20;8.63;;;9.10;99.90;;;;;;4876471;29;20017;-81
2021/11/06 05:56:42;;;;;;;19.27;8.25;;;9.10;99.90;;;;;;4867811;29;20042;-79
2021/11/06 05:59:08;;;;;;;13.10;8.43;;;9.10;99.90;;;;;;4875375;29;20030;-79
2021/11/06 06:01:34;;;;;;;18.75;9.02;;;9.10;99.90;;;;;;4884867;29;20029;-80
2021/11/06 06:04:01;;;;;;;17.45;8.80;;;9.20;99.90;;;;;;4884472;29;20044;-80
2021/11/06 06:06:27;;;;;;;17.20;8.50;;;9.20;99.90;;;;;;4870885;29;20053;-79
2021/11/06 06:08:52;;;;;;;14.07;8.43;;;9.20;99.90;;;;;;4882333;29;20032;-81
2021/11/06 06:11:18;;;;;;;21.05;8.57;;;9.20;99.90;;;;;;4884498;29;20009;-79
2021/11/06 06:13:44;;;;;;;20.52;9.02;;;9.20;99.90;;;;;;4884872;29;20051;-80
2021/11/06 06:16:09;;;;;;;18.70;8.57;;;9.20;99.90;;;;;;4885390;29;20037;-78
2021/11/06 06:18:35;;;;;;;18.73;10.15;;;9.20;99.90;;;;;;4884719;29;20010;-81
2021/11/06 06:21:01;;;;;;;16.92;8.25;;;9.20;99.90;;;;;;4883730;29;20070;-81
2021/11/06 06:23:26;;;;;;;21.30;8.63;;;9.30;99.90;;;;;;4901855;29;20028;-81
2021/11/06 06:25:52;;;;;;;13.07;8.48;;;9.30;99.90;;;;;;4900500;29;20044;-79
2021/11/06 06:28:18;;;;;;;21.27;9.52;;;9.30;99.90;;;;;;4888412;29;20046;-77
2021/11/06 06:30:43;;;;;;;17.70;8.75;;;9.30;99.90;;;;;;4884136;29;20436;-81
2021/11/06 06:33:09;;;;;;;22.73;10.70;;;9.30;99.90;;;;;;4882791;29;20128;-81
2021/11/06 06:35:35;;;;;;;17.02;9.27;;;9.30;99.90;;;;;;4876169;29;20029;-82
2021/11/06 06:38:01;;;;;;;15.25;8.88;;;9.30;99.90;;;;;;4869098;29;20064;-82
2021/11/06 06:40:27;;;;;;;15.15;9.00;;;9.30;99.90;;;;;;4877251;29;20036;-82
2021/11/06 06:42:53;;;;;;;18.58;8.70;;;9.40;99.90;;;;;;4868962;29;20045;-82
2021/11/06 06:45:19;;;;;;;16.13;8.63;;;9.40;99.90;;;;;;4862968;29;20521;-82
2021/11/06 06:47:45;;;;;;;14.65;8.55;;;9.40;99.90;;;;;;4868600;29;20353;-81
2021/11/06 06:50:11;;;;;;;13.82;8.20;;;9.40;99.90;;;;;;4861861;29;20033;-82
2021/11/06 06:52:37;;;;;;;21.73;9.60;;;9.40;99.90;;;;;;4864354;29;20558;-83
2021/11/06 06:55:03;;;;;;;18.15;9.20;;;9.40;99.90;;;;;;4866771;29;20096;-83
2021/11/06 06:57:29;;;;;;;15.65;9.48;;;9.40;99.90;;;;;;4863007;29;20033;-83
2021/11/06 06:59:55;;;;;;;19.45;9.18;;;9.40;99.90;;;;;;4879830;29;20032;-83
2021/11/06 07:02:20;;;;;;;18.40;9.75;;;9.40;99.90;;;;;;4866143;29;20041;-84
2021/11/06 07:04:47;;;;;;;20.88;9.75;;;9.40;99.90;;;;;;4862133;29;20101;-84
2021/11/06 07:07:13;;;;;;;16.45;9.07;;;9.40;99.90;;;;;;4862929;29;20113;-83
2021/11/06 07:09:40;;;;;;;19.77;8.40;;;9.40;99.90;;;;;;4862318;29;20026;-82
2021/11/06 07:12:07;;;;;;;17.52;9.18;;;9.40;99.90;;;;;;4863069;29;20025;-81
2021/11/06 07:14:33;;;;;;;17.35;9.32;;;9.40;99.90;;;;;;4860994;29;20041;-83
2021/11/06 07:16:59;;;;;;;20.35;8.95;;;9.40;99.90;;;;;;4867160;29;20041;-82
2021/11/06 07:19:25;;;;;;;17.83;8.98;;;9.40;99.90;;;;;;4863038;29;20018;-82
2021/11/06 07:21:51;;;;;;;27.15;9.38;;;9.30;99.90;;;;;;4861963;29;20021;-83
2021/11/06 07:24:17;;;;;;;19.05;9.15;;;9.30;99.90;;;;;;4861189;29;20042;-81
2021/11/06 07:26:43;;;;;;;26.33;9.77;;;9.40;99.90;;;;;;4861681;29;20026;-82
2021/11/06 07:29:11;;;;;;;19.48;8.38;;;9.40;99.90;;;;;;4858390;29;20025;-81
2021/11/06 07:31:36;;;;;;;34.07;8.90;;;9.50;99.90;;;;;;4847546;29;20036;-81
2021/11/06 07:34:02;;;;;;;22.38;9.25;;;9.40;99.90;;;;;;4843024;29;20053;-82
2021/11/06 07:36:28;;;;;;;16.73;8.63;;;9.40;99.90;;;;;;4857897;29;20070;-82
2021/11/06 07:38:54;;;;;;;23.38;9.85;;;9.50;99.90;;;;;;4854104;29;20022;-83
2021/11/06 07:41:23;;;;;;;24.05;9.38;;;9.50;99.90;;;;;;4861105;29;20033;-82
2021/11/06 07:43:50;;;;;;;29.52;10.35;;;9.60;99.90;;;;;;4843882;29;20124;-83
2021/11/06 07:46:16;;;;;;;23.98;9.52;;;9.60;99.90;;;;;;4843830;29;20507;-83
2021/11/06 07:48:42;;;;;;;25.58;10.32;;;9.70;99.90;;;;;;4861270;29;20025;-83
2021/11/06 07:51:08;;;;;;;28.40;9.93;;;9.60;99.90;;;;;;4867892;29;20487;-84
2021/11/06 07:53:34;;;;;;;22.52;9.90;;;9.70;99.90;;;;;;4868641;29;20044;-83
2021/11/06 07:56:00;;;;;;;19.35;7.93;;;9.70;99.90;;;;;;4881058;29;20033;-83
2021/11/06 07:58:25;;;;;;;25.88;10.90;;;9.80;99.90;;;;;;4870780;29;20142;-83
2021/11/06 08:00:51;;;;;;;26.00;9.68;;;9.80;99.90;;;;;;4862025;29;20096;-83
2021/11/06 08:03:17;;;;;;;26.63;9.65;;;9.80;99.90;;;;;;4860898;29;20057;-83
2021/11/06 08:05:43;;;;;;;29.27;10.75;;;9.80;99.90;;;;;;4864336;29;20033;-82
2021/11/06 08:08:09;;;;;;;22.88;9.93;;;9.80;99.90;;;;;;4868905;29;20017;-81
2021/11/06 08:10:35;;;;;;;28.90;9.07;;;9.80;99.90;;;;;;4878206;29;20064;-82
2021/11/06 08:13:04;;;;;;;20.20;8.80;;;9.80;99.90;;;;;;4863083;29;20024;-82
2021/11/06 08:15:31;;;;;;;24.92;9.65;;;9.80;99.90;;;;;;4875995;29;20029;-82
2021/11/06 08:17:57;;;;;;;23.35;9.43;;;9.80;99.90;;;;;;4877864;29;20479;-80
2021/11/06 08:20:23;;;;;;;26.33;9.48;;;9.80;99.90;;;;;;4866481;29;20029;-80
2021/11/06 08:22:50;;;;;;;27.70;8.98;;;9.90;99.90;;;;;;4866069;29;20077;-84
2021/11/06 08:25:16;;;;;;;27.20;9.32;;;9.90;99.90;;;;;;4875914;29;20025;-81
2021/11/06 08:27:47;;;;;;;25.20;8.05;;;10.00;99.90;;;;;;4865201;29;20036;-81
2021/11/06 08:30:15;;;;;;;25.58;8.75;;;10.00;99.90;;;;;;4871622;29;20045;-81
2021/11/06 08:32:41;;;;;;;19.45;7.93;;;10.00;99.90;;;;;;4863947;29;20025;-82
2021/11/06 08:35:09;;;;;;;28.83;8.25;;;10.00;99.90;;;;;;4867144;29;20053;-82
2021/11/06 08:37:35;;;;;;;24.15;8.57;;;10.00;99.90;;;;;;4861721;29;20469;-82
2021/11/06 08:40:01;;;;;;;22.55;7.80;;;10.10;99.90;;;;;;4869803;29;20057;-81
2021/11/06 08:42:26;;;;;;;18.15;7.65;;;10.10;99.90;;;;;;4860011;29;20105;-82
2021/11/06 08:44:55;;;;;;;15.93;7.28;;;10.20;99.90;;;;;;4861229;29;20033;-82
2021/11/06 08:47:20;;;;;;;22.50;8.77;;;10.30;99.90;;;;;;4863577;29;20162;-80
2021/11/06 08:49:46;;;;;;;21.27;7.25;;;10.40;99.90;;;;;;4861173;29;20487;-81
2021/11/06 08:52:12;;;;;;;18.77;8.05;;;10.50;99.90;;;;;;4857239;29;20403;-81
2021/11/06 08:54:37;;;;;;;17.98;7.07;;;10.50;99.90;;;;;;4847649;29;20036;-81
2021/11/06 08:57:04;;;;;;;22.23;7.70;;;10.60;99.90;;;;;;4859983;29;20120;-81
2021/11/06 08:59:31;;;;;;;16.00;6.70;;;10.70;99.90;;;;;;4850446;29;20408;-82
2021/11/06 09:01:57;;;;;;;23.15;8.05;;;10.70;99.90;;;;;;4857463;29;20021;-81
2021/11/06 09:04:24;;;;;;;22.55;7.68;;;10.70;99.90;;;;;;4861023;29;20045;-82
2021/11/06 09:06:51;;;;;;;18.77;7.47;;;10.80;99.90;;;;;;4860959;29;20459;-82
2021/11/06 09:09:17;;;;;;;25.40;7.20;;;10.70;99.90;;;;;;4864801;29;20606;-81
2021/11/06 09:11:46;;;;;;;21.25;6.80;;;10.70;99.90;;;;;;4856971;29;20054;-80
2021/11/06 09:14:14;;;;;;;26.13;7.63;;;10.70;99.90;;;;;;4868035;29;20033;-81
2021/11/06 09:16:40;;;;;;;16.70;6.85;;;10.60;99.90;;;;;;4860380;29;20140;-81
2021/11/06 09:19:07;;;;;;;20.88;7.38;;;10.60;99.90;;;;;;4857838;29;20089;-83
2021/11/06 09:21:33;;;;;;;21.45;7.60;;;10.70;99.90;;;;;;4845919;29;20030;-79
2021/11/06 09:24:03;;;;;;;21.33;6.78;;;10.70;99.90;;;;;;4854817;29;20045;-81
2021/11/06 09:26:41;;;;;;;17.58;6.38;;;10.80;99.90;;;;;;4858943;29;20068;-82
2021/11/06 09:29:07;;;;;;;18.15;7.82;;;10.90;99.90;;;;;;4872346;29;20136;-82
2021/11/06 09:31:33;;;;;;;15.38;5.97;;;10.90;99.90;;;;;;4860935;29;20117;-81
2021/11/06 09:34:00;;;;;;;20.38;5.60;;;11.00;99.90;;;;;;4859238;29;20042;-80
2021/11/06 09:36:26;;;;;;;15.32;6.13;;;11.10;99.90;;;;;;4859613;29;20389;-83
2021/11/06 09:38:53;;;;;;;17.10;6.32;;;11.20;99.90;;;;;;4858177;29;20032;-82
2021/11/06 09:41:19;;;;;;;16.25;5.75;;;11.20;99.90;;;;;;4857302;29;20032;-81
2021/11/06 09:43:46;;;;;;;16.42;5.10;;;11.20;99.90;;;;;;4860670;29;20427;-82
2021/11/06 09:46:13;;;;;;;17.50;6.28;;;11.30;99.90;;;;;;4859380;29;20444;-82
2021/11/06 09:48:40;;;;;;;14.82;5.75;;;11.20;99.90;;;;;;4860979;29;20388;-82
2021/11/06 09:51:07;;;;;;;12.98;5.80;;;11.20;99.90;;;;;;4853591;29;20028;-83
2021/11/06 09:53:40;;;;;;;10.73;4.88;;;11.30;99.90;;;;;;4861206;29;20029;-82
2021/11/06 09:56:08;;;;;;;11.05;5.43;;;11.30;99.90;;;;;;4860843;29;20037;-82
2021/11/06 09:58:35;;;;;;;16.17;6.03;;;11.30;99.90;;;;;;4843687;29;20030;-81
2021/11/06 10:01:01;;;;;;;11.90;5.13;;;11.30;99.90;;;;;;4863931;29;20029;-79
2021/11/06 10:03:27;;;;;;;13.27;5.53;;;11.30;99.90;;;;;;4857183;29;20529;-82
2021/11/06 10:06:00;;;;;;;13.30;5.53;;;11.30;99.90;;;;;;4863748;29;20041;-81
2021/11/06 10:08:30;;;;;;;17.38;6.20;;;11.30;99.90;;;;;;4848836;29;20053;-81
2021/11/06 10:10:59;;;;;;;14.77;5.93;;;11.30;99.90;;;;;;4854770;29;20037;-82
2021/11/06 10:13:25;;;;;;;20.58;5.60;;;11.30;99.90;;;;;;4864368;29;20028;-82
2021/11/06 10:15:53;;;;;;;11.57;5.53;;;11.30;99.90;;;;;;4863320;29;20049;-82
2021/11/06 10:18:21;;;;;;;;;;;11.30;99.90;;;;;;4855551;29;20457;-82
2021/11/06 10:20:50;;;;;;;9.80;5.13;;;11.30;99.90;;;;;;4846925;29;19915;-80
2021/11/06 10:23:17;;;;;;;30.15;5.00;;;11.20;99.90;;;;;;4862739;29;20042;-81
2021/11/06 10:25:43;;;;;;;54.65;9.15;;;11.20;99.90;;;;;;4863190;29;20029;-81
2021/11/06 10:28:15;;;;;;;17.05;6.68;;;11.20;99.90;;;;;;4862746;29;20053;-82
2021/11/06 10:30:43;;;;;;;18.45;6.40;;;11.20;99.90;;;;;;4876063;29;20025;-80
2021/11/06 10:33:18;;;;;;;12.77;5.85;;;11.20;99.90;;;;;;4858974;29;20084;-81
2021/11/06 10:35:53;;;;;;;14.27;5.68;;;11.20;99.90;;;;;;4850405;29;20081;-81
2021/11/06 10:38:22;;;;;;;20.10;5.90;;;11.20;99.90;;;;;;4868472;29;20025;-79
2021/11/06 10:41:02;;;;;;;21.30;5.97;;;11.20;99.90;;;;;;4864498;29;20526;-82
2021/11/06 10:43:31;;;;;;;18.92;6.15;;;11.20;99.90;;;;;;4871470;29;20025;-79
2021/11/06 10:45:59;;;;;;;20.83;5.93;;;11.30;99.90;;;;;;4864587;29;20089;-77
2021/11/06 10:48:35;;;;;;;16.90;5.55;;;11.40;99.90;;;;;;4876114;29;20029;-77
2021/11/06 10:51:04;;;;;;;20.83;6.28;;;11.50;99.90;;;;;;4879873;29;20439;-78
2021/11/06 10:53:51;;;;;;;14.85;6.10;;;11.60;99.90;;;;;;4861004;29;20018;-78
2021/11/06 10:56:43;;;;;;;19.20;6.22;;;11.70;99.90;;;;;;4880908;29;20033;-77
2021/11/06 10:59:15;;;;;;;11.40;5.30;;;11.70;99.90;;;;;;4880521;29;20026;-78
2021/11/06 11:01:49;;;;;;;17.33;6.63;;;11.70;99.90;;;;;;4886714;29;20033;-77
2021/11/06 11:04:18;;;;;;;15.75;5.35;;;11.60;99.90;;;;;;4869997;29;20030;-78
2021/11/06 11:06:47;;;;;;;;;;;11.60;99.90;;;;;;4862042;29;20053;-77
2021/11/06 11:09:16;;;;;;;14.25;5.00;;;11.50;99.90;;;;;;4877164;29;20365;-76
2021/11/06 11:11:42;;;;;;;13.70;5.00;;;11.50;99.90;;;;;;4872820;29;20026;-77
2021/11/06 11:14:12;;;;;;;20.25;5.53;;;11.50;99.90;;;;;;4861785;29;20033;-77
2021/11/06 11:16:47;;;;;;;12.25;4.68;;;11.50;99.90;;;;;;4870269;29;20029;-77
2021/11/06 11:19:13;;;;;;;16.67;4.93;;;11.60;99.90;;;;;;4860662;29;20060;-76
2021/11/06 11:21:40;;;;;;;17.95;4.13;;;11.70;99.90;;;;;;4861599;29;20058;-77
2021/11/06 11:24:09;;;;;;;18.83;4.47;;;11.80;99.90;;;;;;4862197;29;20486;-78
2021/11/06 11:26:41;;;;;;;14.63;4.82;;;12.00;99.90;;;;;;4861307;29;20039;-77
2021/11/06 11:29:10;;;;;;;9.60;4.32;;;12.00;99.90;;;;;;4861319;29;20029;-76
2021/11/06 11:31:39;;;;;;;9.18;4.45;;;12.00;99.90;;;;;;4862769;29;20452;-77
2021/11/06 11:34:08;;;;;;;12.13;4.90;;;12.00;99.90;;;;;;4872650;29;20081;-77
2021/11/06 11:36:35;;;;;;;8.02;3.95;;;12.00;99.90;;;;;;4864015;29;20548;-77
2021/11/06 11:39:06;;;;;;;11.67;4.37;;;12.10;99.90;;;;;;4861223;29;20054;-79
2021/11/06 11:41:48;;;;;;;8.88;3.95;;;12.20;99.90;;;;;;4875011;29;20289;-77
2021/11/06 11:44:34;;;;;;;6.68;3.70;;;12.20;99.90;;;;;;4890313;29;20083;-78
2021/11/06 11:47:25;;;;;;;8.00;4.18;;;12.20;99.90;;;;;;4876430;29;20090;-79
2021/11/06 11:49:59;;;;;;;10.55;5.80;;;12.30;99.90;;;;;;4869629;29;20123;-76
2021/11/06 11:52:27;;;;;;;11.55;4.85;;;12.40;99.90;;;;;;4845089;29;20038;-77
2021/11/06 11:55:08;;;;;;;7.75;3.40;;;12.50;99.90;;;;;;4854938;29;20562;-77
2021/11/06 11:57:35;;;;;;;10.38;3.72;;;12.50;99.90;;;;;;4880312;29;20064;-77
2021/11/06 12:00:21;;;;;;;6.15;3.75;;;12.50;99.90;;;;;;4878202;29;20095;-77
2021/11/06 12:03:05;;;;;;;7.65;4.05;;;12.60;99.90;;;;;;4871634;29;20112;-77
2021/11/06 12:05:36;;;;;;;5.47;3.40;;;12.60;99.90;;;;;;4861452;29;20140;-78
2021/11/06 12:08:11;;;;;;;8.13;3.17;;;12.70;99.90;;;;;;4881419;29;20032;-77
2021/11/06 12:10:45;;;;;;;4.20;3.28;;;12.70;99.90;;;;;;4862264;29;20037;-76
2021/11/06 12:13:30;;;;;;;7.70;3.90;;;12.70;99.90;;;;;;4877570;29;20037;-77
2021/11/06 12:15:58;;;;;;;10.88;4.20;;;12.80;99.90;;;;;;4862323;29;20042;-76
2021/11/06 12:18:33;;;;;;;5.78;3.33;;;12.80;99.90;;;;;;4862494;29;20096;-76
2021/11/06 12:21:15;;;;;;;6.32;3.58;;;12.80;99.90;;;;;;4887146;29;20029;-79
2021/11/06 12:24:10;;;;;;;10.48;3.88;;;12.80;99.90;;;;;;4877288;29;20096;-77
2021/11/06 12:26:46;;;;;;;7.75;3.80;;;12.90;99.90;;;;;;4855100;29;20105;-77
2021/11/06 12:29:15;;;;;;;9.55;3.42;;;12.80;99.90;;;;;;4878181;29;20116;-76
2021/11/06 12:31:55;;;;;;;11.27;3.65;;;12.80;99.90;;;;;;4879413;29;20040;-77
2021/11/06 12:34:46;;;;;;;11.18;3.97;;;12.80;99.90;;;;;;4872247;29;20560;-77
2021/11/06 12:37:33;;;;;;;12.77;3.80;;;12.70;99.90;;;;;;4856335;29;20116;-78
2021/11/06 12:40:01;;;;;;;24.83;6.90;;;12.70;99.90;;;;;;4857511;29;20039;-80
2021/11/06 12:42:31;;;;;;;15.77;5.30;;;12.60;99.90;;;;;;4875658;29;20063;-78
2021/11/06 12:45:04;;;;;;;20.25;9.45;;;12.70;99.90;;;;;;4873726;29;20049;-79
2021/11/06 12:47:33;;;;;;;8.70;4.03;;;12.60;99.90;;;;;;4861680;29;20041;-76
2021/11/06 12:50:13;;;;;;;13.10;5.57;;;12.60;99.90;;;;;;4875972;29;20025;-76
2021/11/06 12:52:42;;;;;;;20.90;10.20;;;12.60;99.90;;;;;;4877385;29;20037;-76